createdAt,value
2017-06-10T00:00:59.340Z,62.20
2017-06-10T00:03:27.584Z,62.10
2017-06-10T00:05:55.876Z,62.20
2017-06-10T00:08:24.119Z,60.40
2017-06-10T00:10:52.359Z,60.80
2017-06-10T00:13:20.633Z,61.90
2017-06-10T00:15:48.876Z,63.70
2017-06-10T00:18:17.130Z,64.90
2017-06-10T00:20:45.779Z,62.10
2017-06-10T00:23:14.023Z,62.10
2017-06-10T00:25:42.265Z,60.60
2017-06-10T00:28:10.933Z,58.60
2017-06-10T00:30:39.163Z,58.60
2017-06-10T00:33:07.399Z,57.60
2017-06-10T00:35:35.648Z,56.90
2017-06-10T00:38:04.133Z,56.90
2017-06-10T00:40:32.714Z,57.60
2017-06-10T00:43:00.945Z,57.00
2017-06-10T00:45:29.183Z,57.30
2017-06-10T00:47:57.707Z,57.30
2017-06-10T00:50:25.989Z,58.90
2017-06-10T00:52:54.237Z,58.30
2017-06-10T00:55:22.516Z,58.20
2017-06-10T00:57:50.843Z,58.60
2017-06-10T01:00:19.072Z,58.20
2017-06-10T01:02:47.325Z,59.10
2017-06-10T01:05:15.949Z,57.30
2017-06-10T01:07:44.189Z,57.30
2017-06-10T01:10:12.447Z,57.00
2017-06-10T01:12:40.683Z,57.00
2017-06-10T01:15:09.192Z,56.70
2017-06-10T01:17:37.888Z,56.90
2017-06-10T01:20:06.146Z,56.70
2017-06-10T01:22:34.367Z,56.40
2017-06-10T01:25:02.647Z,56.10
2017-06-10T01:27:31.267Z,57.40
2017-06-10T01:29:59.516Z,57.40
2017-06-10T01:32:27.818Z,57.30
2017-06-10T01:34:56.047Z,56.90
2017-06-10T01:37:24.681Z,56.30
2017-06-10T01:39:52.936Z,56.30
2017-06-10T01:42:21.178Z,56.10
2017-06-10T01:44:50.045Z,58.80
2017-06-10T01:47:18.413Z,58.80
2017-06-10T01:49:46.644Z,60.00
2017-06-10T01:52:14.885Z,59.70
2017-06-10T01:54:43.149Z,59.10
2017-06-10T01:57:11.741Z,58.60
2017-06-10T01:59:39.959Z,57.70
2017-06-10T02:02:08.229Z,57.20
2017-06-10T02:04:36.464Z,57.30
2017-06-10T02:07:04.724Z,57.60
2017-06-10T02:09:32.973Z,58.80
2017-06-10T02:12:01.208Z,58.30
2017-06-10T02:14:29.842Z,58.80
2017-06-10T02:16:58.348Z,58.80
2017-06-10T02:19:26.578Z,58.80
2017-06-10T02:21:54.825Z,58.30
2017-06-10T02:24:23.688Z,59.10
2017-06-10T02:26:51.927Z,59.10
2017-06-10T02:29:20.156Z,58.90
2017-06-10T02:31:48.823Z,58.20
2017-06-10T02:34:17.062Z,58.20
2017-06-10T02:36:45.314Z,57.70
2017-06-10T02:39:13.973Z,57.00
2017-06-10T02:41:42.201Z,57.00
2017-06-10T02:44:10.440Z,57.00
2017-06-10T02:46:38.712Z,57.90
2017-06-10T02:49:07.783Z,56.70
2017-06-10T02:51:36.016Z,56.70
2017-06-10T02:54:04.281Z,56.10
2017-06-10T02:56:32.525Z,56.10
2017-06-10T02:59:01.158Z,55.10
2017-06-10T03:01:29.446Z,55.10
2017-06-10T03:03:57.694Z,55.10
2017-06-10T03:06:25.907Z,55.50
2017-06-10T03:08:54.163Z,55.40
2017-06-10T03:11:22.396Z,54.80
2017-06-10T03:13:51.021Z,56.60
2017-06-10T03:16:19.332Z,56.60
2017-06-10T03:18:47.563Z,58.00
2017-06-10T03:21:15.795Z,58.90
2017-06-10T03:23:44.196Z,58.50
2017-06-10T03:26:13.315Z,58.00
2017-06-10T03:28:41.563Z,59.40
2017-06-10T03:31:10.236Z,61.20
2017-06-10T03:33:38.863Z,59.40
2017-06-10T03:36:07.106Z,59.40
2017-06-10T03:38:35.745Z,58.80
2017-06-10T03:41:03.986Z,58.80
2017-06-10T03:43:32.268Z,57.70
2017-06-10T03:46:01.301Z,55.80
2017-06-10T03:48:29.533Z,57.20
2017-06-10T03:50:57.870Z,56.70
2017-06-10T03:53:26.103Z,55.70
2017-06-10T03:55:54.341Z,55.20
2017-06-10T03:58:22.575Z,55.70
2017-06-10T04:00:50.823Z,55.10
2017-06-10T04:03:19.075Z,54.50
2017-06-10T04:05:47.305Z,55.50
2017-06-10T04:08:15.551Z,54.50
2017-06-10T04:10:43.832Z,56.30
2017-06-10T04:13:12.080Z,55.20
2017-06-10T04:15:40.631Z,56.90
2017-06-10T04:18:08.986Z,57.70
2017-06-10T04:20:37.209Z,56.90
2017-06-10T04:23:05.463Z,55.40
2017-06-10T04:25:33.720Z,55.40
2017-06-10T04:28:01.959Z,57.40
2017-06-10T04:30:30.202Z,57.00
2017-06-10T04:32:58.847Z,56.30
2017-06-10T04:35:27.083Z,56.30
2017-06-10T04:37:55.326Z,57.30
2017-06-10T04:40:23.865Z,58.00
2017-06-10T04:42:52.111Z,58.30
2017-06-10T04:45:21.108Z,57.60
2017-06-10T04:47:49.635Z,57.70
2017-06-10T04:50:17.867Z,56.70
2017-06-10T04:52:46.101Z,55.20
2017-06-10T04:55:14.339Z,55.80
2017-06-10T04:57:42.576Z,56.10
2017-06-10T05:00:10.888Z,56.60
2017-06-10T05:02:39.500Z,54.80
2017-06-10T05:05:07.743Z,56.10
2017-06-10T05:07:36.866Z,55.80
2017-06-10T05:10:05.089Z,55.80
2017-06-10T05:12:33.417Z,53.60
2017-06-10T05:15:01.873Z,53.00
2017-06-10T05:17:30.112Z,54.10
2017-06-10T05:19:58.749Z,54.50
2017-06-10T05:22:27.018Z,54.50
2017-06-10T05:24:55.519Z,56.30
2017-06-10T05:27:23.756Z,56.30
2017-06-10T05:29:52.016Z,55.10
2017-06-10T05:32:20.252Z,54.90
2017-06-10T05:34:48.491Z,57.70
2017-06-10T05:37:16.788Z,56.70
2017-06-10T05:39:45.021Z,54.30
2017-06-10T05:42:13.265Z,53.50
2017-06-10T05:44:41.547Z,51.40
2017-06-10T05:47:09.824Z,50.40
2017-06-10T05:49:39.134Z,49.50
2017-06-10T05:52:08.351Z,49.50
2017-06-10T05:54:37.703Z,48.00
2017-06-10T05:57:06.704Z,48.60
2017-06-10T05:59:35.883Z,49.30
2017-06-10T06:02:05.185Z,49.80
2017-06-10T06:04:34.141Z,51.70
2017-06-10T06:07:02.758Z,52.40
2017-06-10T06:09:32.136Z,52.60
2017-06-10T06:12:01.526Z,52.60
2017-06-10T06:14:30.141Z,52.90
2017-06-10T06:16:59.556Z,52.40
2017-06-10T06:19:28.877Z,52.40
2017-06-10T06:21:58.148Z,47.00
2017-06-10T06:24:26.726Z,46.20
2017-06-10T06:26:55.842Z,49.80
2017-06-10T06:29:24.473Z,51.20
2017-06-10T06:31:53.208Z,49.20
2017-06-10T06:34:21.935Z,46.20
2017-06-10T06:36:50.988Z,43.70
2017-06-10T06:39:19.244Z,44.70
2017-06-10T06:41:47.492Z,42.10
2017-06-10T06:44:16.103Z,42.50
2017-06-10T06:46:44.639Z,42.50
2017-06-10T06:49:13.039Z,43.10
2017-06-10T06:51:41.728Z,44.00
2017-06-10T06:54:10.042Z,40.60
2017-06-10T06:56:39.152Z,39.40
2017-06-10T06:59:07.653Z,39.40
2017-06-10T07:01:36.327Z,38.20
2017-06-10T07:04:04.565Z,37.10
2017-06-10T07:06:33.058Z,37.10
2017-06-10T07:09:01.343Z,37.40
2017-06-10T07:11:29.571Z,38.20
2017-06-10T07:13:58.101Z,34.80
2017-06-10T07:16:26.680Z,42.40
2017-06-10T07:18:55.336Z,40.20
2017-06-10T07:21:23.585Z,39.40
2017-06-10T07:23:51.839Z,38.10
2017-06-10T07:26:20.188Z,37.60
2017-06-10T07:28:48.427Z,34.80
2017-06-10T07:31:16.680Z,36.80
2017-06-10T07:33:44.913Z,33.20
2017-06-10T07:36:13.367Z,31.60
2017-06-10T07:38:41.610Z,33.70
2017-06-10T07:41:09.946Z,31.70
2017-06-10T07:43:38.210Z,31.40
2017-06-10T07:46:06.444Z,30.60
2017-06-10T07:48:35.309Z,30.70
2017-06-10T07:51:03.920Z,31.40
2017-06-10T07:53:32.382Z,30.70
2017-06-10T07:56:00.987Z,30.60
2017-06-10T07:58:29.418Z,30.30
2017-06-10T08:00:58.347Z,30.30
2017-06-10T08:03:26.595Z,30.40
2017-06-10T08:05:55.217Z,31.70
2017-06-10T08:08:23.463Z,31.40
2017-06-10T08:10:51.762Z,29.10
2017-06-10T08:13:20.038Z,31.10
2017-06-10T08:15:48.333Z,29.60
2017-06-10T08:18:16.808Z,28.40
2017-06-10T08:20:45.094Z,29.90
2017-06-10T08:23:13.340Z,29.10
2017-06-10T08:25:42.012Z,29.50
2017-06-10T08:28:10.277Z,29.50
2017-06-10T08:30:38.513Z,29.90
2017-06-10T08:33:06.757Z,30.70
2017-06-10T08:35:35.161Z,30.80
2017-06-10T08:38:03.403Z,28.40
2017-06-10T08:40:32.229Z,29.50
2017-06-10T08:43:00.516Z,29.50
2017-06-10T08:45:28.872Z,28.90
2017-06-10T08:47:57.123Z,30.10
2017-06-10T08:50:26.192Z,28.40
2017-06-10T08:52:54.457Z,28.90
2017-06-10T08:55:22.685Z,30.30
2017-06-10T08:57:50.986Z,29.20
2017-06-10T09:00:19.229Z,30.30
2017-06-10T09:02:47.459Z,29.50
2017-06-10T09:05:15.916Z,28.90
2017-06-10T09:07:44.174Z,28.00
2017-06-10T09:10:12.408Z,29.90
2017-06-10T09:12:40.731Z,28.80
2017-06-10T09:15:08.975Z,28.90
2017-06-10T09:17:37.237Z,27.40
2017-06-10T09:20:05.523Z,30.60
2017-06-10T09:22:34.170Z,31.70
2017-06-10T09:25:02.400Z,31.60
2017-06-10T09:27:30.745Z,29.80
2017-06-10T09:29:58.995Z,32.50
2017-06-10T09:32:27.254Z,37.50
2017-06-10T09:34:55.516Z,37.40
2017-06-10T09:37:24.048Z,37.20
2017-06-10T09:39:52.632Z,36.60
2017-06-10T09:42:20.885Z,37.50
2017-06-10T09:44:49.135Z,38.40
2017-06-10T09:47:17.455Z,37.40
2017-06-10T09:49:45.721Z,34.50
2017-06-10T09:52:13.992Z,32.90
2017-06-10T09:54:42.279Z,33.20
2017-06-10T09:57:11.685Z,33.40
2017-06-10T09:59:40.078Z,31.40
2017-06-10T10:02:08.539Z,32.90
2017-06-10T10:04:37.203Z,28.80
2017-06-10T10:07:06.165Z,29.70
2017-06-10T10:09:35.215Z,33.40
2017-06-10T10:12:03.854Z,33.50
2017-06-10T10:14:32.376Z,28.90
2017-06-10T10:17:00.864Z,28.30
2017-06-10T10:19:29.088Z,28.30
2017-06-10T10:21:57.753Z,27.00
2017-06-10T10:24:26.428Z,30.70
2017-06-10T10:26:54.679Z,30.70
2017-06-10T10:29:22.927Z,31.10
2017-06-10T10:31:51.210Z,30.70
2017-06-10T10:34:19.500Z,29.50
2017-06-10T10:36:47.735Z,28.70
2017-06-10T10:39:16.142Z,31.00
2017-06-10T10:41:44.432Z,28.90
2017-06-10T10:44:12.699Z,28.30
2017-06-10T10:46:40.963Z,29.60
2017-06-10T10:49:09.528Z,32.00
2017-06-10T10:51:37.732Z,27.40
2017-06-10T10:54:06.142Z,31.40
2017-06-10T10:56:34.395Z,31.90
2017-06-10T10:59:02.668Z,33.10
2017-06-10T11:01:30.948Z,33.40
2017-06-10T11:03:59.216Z,32.80
2017-06-10T11:06:27.450Z,34.20
2017-06-10T11:08:55.996Z,34.00
2017-06-10T11:11:24.777Z,34.10
2017-06-10T11:13:53.051Z,33.50
2017-06-10T11:16:21.429Z,33.70
2017-06-10T11:18:49.663Z,34.40
2017-06-10T11:21:18.281Z,34.50
2017-06-10T11:23:46.516Z,35.30
2017-06-10T11:26:14.769Z,35.70
2017-06-10T11:28:43.064Z,35.60
2017-06-10T11:31:11.342Z,35.30
2017-06-10T11:33:39.895Z,35.10
2017-06-10T11:36:08.484Z,34.50
2017-06-10T11:38:36.716Z,34.10
2017-06-10T11:41:04.964Z,34.20
2017-06-10T11:43:33.321Z,34.40
2017-06-10T11:46:01.561Z,33.50
2017-06-10T11:48:30.359Z,34.40
2017-06-10T11:50:58.943Z,36.90
2017-06-10T11:53:27.210Z,36.30
2017-06-10T11:55:55.487Z,36.20
2017-06-10T11:58:23.753Z,36.00
2017-06-10T12:00:52.106Z,36.50
2017-06-10T12:03:20.381Z,36.50
2017-06-10T12:05:48.662Z,34.70
2017-06-10T12:08:16.923Z,36.30
2017-06-10T12:10:45.153Z,34.10
2017-06-10T12:13:13.404Z,36.00
2017-06-10T12:15:41.655Z,36.00
2017-06-10T12:18:09.884Z,34.80
2017-06-10T12:20:38.132Z,34.40
2017-06-10T12:23:06.375Z,34.10
2017-06-10T12:25:34.686Z,33.70
2017-06-10T12:28:02.948Z,32.00
2017-06-10T12:30:31.190Z,33.50
2017-06-10T12:32:59.467Z,30.70
2017-06-10T12:35:27.804Z,33.50
2017-06-10T12:37:56.033Z,32.90
2017-06-10T12:40:24.275Z,32.90
2017-06-10T12:42:52.543Z,33.10
2017-06-10T12:45:21.018Z,33.10
2017-06-10T12:47:49.430Z,32.20
2017-06-10T12:50:17.672Z,32.90
2017-06-10T12:52:45.936Z,30.30
2017-06-10T12:55:14.177Z,31.40
2017-06-10T12:57:42.419Z,31.60
2017-06-10T13:00:10.947Z,32.20
2017-06-10T13:02:39.182Z,32.20
2017-06-10T13:05:07.433Z,32.30
2017-06-10T13:07:35.879Z,32.90
2017-06-10T13:10:04.177Z,33.20
2017-06-10T13:12:32.453Z,33.10
2017-06-10T13:15:00.705Z,33.10
2017-06-10T13:17:29.224Z,33.10
2017-06-10T13:19:57.460Z,32.60
2017-06-10T13:22:25.971Z,32.60
2017-06-10T13:24:54.436Z,31.30
2017-06-10T13:27:22.695Z,32.50
2017-06-10T13:29:50.976Z,32.30
2017-06-10T13:32:19.221Z,32.60
2017-06-10T13:34:47.558Z,32.60
2017-06-10T13:37:15.936Z,32.30
2017-06-10T13:39:44.175Z,31.00
2017-06-10T13:42:12.435Z,32.20
2017-06-10T13:44:41.072Z,32.50
2017-06-10T13:47:09.310Z,32.60
2017-06-10T13:49:37.834Z,31.90
2017-06-10T13:52:06.134Z,29.70
2017-06-10T13:54:34.365Z,32.00
2017-06-10T13:57:02.600Z,30.60
2017-06-10T13:59:30.932Z,30.40
2017-06-10T14:01:59.152Z,30.80
2017-06-10T14:04:27.420Z,31.40
2017-06-10T14:06:56.341Z,29.60
2017-06-10T14:09:24.597Z,29.60
2017-06-10T14:11:52.835Z,29.20
2017-06-10T14:14:22.122Z,29.20
2017-06-10T14:16:51.016Z,31.30
2017-06-10T14:19:19.715Z,31.30
2017-06-10T14:21:48.436Z,31.40
2017-06-10T14:24:16.750Z,30.70
2017-06-10T14:26:45.036Z,30.70
2017-06-10T14:29:13.377Z,31.30
2017-06-10T14:31:42.114Z,30.60
2017-06-10T14:34:10.944Z,31.00
2017-06-10T14:36:39.710Z,30.40
2017-06-10T14:39:08.783Z,31.10
2017-06-10T14:41:37.302Z,31.30
2017-06-10T14:44:06.161Z,32.20
2017-06-10T14:46:34.839Z,32.90
2017-06-10T14:49:03.844Z,32.00
2017-06-10T14:51:32.888Z,32.00
2017-06-10T14:56:46.091Z,31.70
2017-06-10T14:59:14.707Z,30.80
2017-06-10T15:01:43.093Z,31.70
2017-06-10T15:04:11.781Z,32.20
2017-06-10T15:06:40.613Z,32.30
2017-06-10T15:09:08.951Z,31.70
2017-06-10T15:11:37.437Z,31.30
2017-06-10T15:14:07.011Z,31.30
2017-06-10T15:16:35.263Z,31.10
2017-06-10T15:19:04.243Z,31.70
2017-06-10T15:21:33.443Z,31.90
2017-06-10T15:24:02.204Z,32.00
2017-06-10T15:26:31.248Z,31.90
2017-06-10T15:28:59.700Z,32.00
2017-06-10T15:31:28.172Z,32.20
2017-06-10T15:33:56.468Z,32.20
2017-06-10T15:36:24.717Z,32.60
2017-06-10T15:38:59.257Z,32.80
2017-06-10T15:41:28.755Z,33.10
2017-06-10T15:43:58.793Z,33.10
2017-06-10T15:46:27.154Z,33.10
2017-06-10T15:48:55.404Z,33.10
2017-06-10T15:51:23.701Z,33.20
2017-06-10T15:53:52.702Z,32.90
2017-06-10T15:56:21.264Z,31.90
2017-06-10T15:58:49.584Z,33.20
2017-06-10T16:01:18.207Z,33.40
2017-06-10T16:03:46.486Z,33.40
2017-06-10T16:06:14.727Z,33.10
2017-06-10T16:08:43.002Z,33.10
2017-06-10T16:11:13.076Z,32.90
2017-06-10T16:13:41.557Z,32.90
2017-06-10T16:16:09.788Z,33.10
2017-06-10T16:18:38.153Z,32.90
2017-06-10T16:21:07.508Z,32.90
2017-06-10T16:23:35.956Z,33.20
2017-06-10T16:26:04.305Z,32.90
2017-06-10T16:28:33.685Z,32.80
2017-06-10T16:31:02.755Z,32.80
2017-06-10T16:33:31.353Z,32.80
2017-06-10T16:35:59.857Z,32.80
2017-06-10T16:38:28.360Z,33.10
2017-06-10T16:40:56.652Z,32.80
2017-06-10T16:43:24.963Z,33.10
2017-06-10T16:45:53.851Z,33.20
2017-06-10T16:48:23.064Z,33.20
2017-06-10T16:50:51.342Z,33.20
2017-06-10T16:53:20.007Z,32.80
2017-06-10T16:55:48.312Z,32.60
2017-06-10T16:58:16.618Z,33.40
2017-06-10T17:00:45.539Z,33.40
2017-06-10T17:03:13.791Z,33.50
2017-06-10T17:05:42.037Z,33.40
2017-06-10T17:08:10.314Z,33.40
2017-06-10T17:10:38.626Z,33.50
2017-06-10T17:13:06.883Z,33.40
2017-06-10T17:15:35.153Z,33.70
2017-06-10T17:18:03.532Z,33.80
2017-06-10T17:20:32.558Z,34.00
2017-06-10T17:23:01.173Z,34.00
2017-06-10T17:25:29.495Z,34.00
2017-06-10T17:27:58.259Z,33.80
2017-06-10T17:30:26.664Z,34.00
2017-06-10T17:32:55.568Z,34.00
2017-06-10T17:35:24.167Z,34.00
2017-06-10T17:37:52.985Z,34.40
2017-06-10T17:40:21.227Z,34.50
2017-06-10T17:42:49.599Z,34.50
2017-06-10T17:45:17.852Z,34.50
2017-06-10T17:47:46.126Z,34.70
2017-06-10T17:50:14.759Z,35.00
2017-06-10T17:52:44.360Z,35.00
2017-06-10T17:55:12.862Z,35.00
2017-06-10T17:57:41.268Z,35.00
2017-06-10T18:00:09.796Z,35.00
2017-06-10T18:02:38.095Z,35.00
2017-06-10T18:05:06.330Z,35.00
2017-06-10T18:07:34.582Z,35.00
2017-06-10T18:10:03.226Z,34.80
2017-06-10T18:12:31.611Z,34.80
2017-06-10T18:15:00.507Z,35.00
2017-06-10T18:17:28.755Z,35.00
2017-06-10T18:19:57.023Z,35.00
2017-06-10T18:22:25.268Z,35.00
2017-06-10T18:24:53.924Z,35.00
2017-06-10T18:27:22.596Z,35.00
2017-06-10T18:29:50.820Z,35.00
2017-06-10T18:32:19.109Z,35.00
2017-06-10T18:34:47.386Z,35.00
2017-06-10T18:37:15.615Z,35.00
2017-06-10T18:39:43.887Z,34.80
2017-06-10T18:42:12.131Z,35.10
2017-06-10T18:44:40.366Z,34.70
2017-06-10T18:47:09.428Z,35.30
2017-06-10T18:49:37.676Z,35.30
2017-06-10T18:52:06.725Z,35.30
2017-06-10T18:54:35.656Z,34.70
2017-06-10T18:57:03.893Z,34.80
2017-06-10T18:59:32.153Z,35.00
2017-06-10T19:02:01.271Z,35.30
2017-06-10T19:04:29.913Z,35.30
2017-06-10T19:06:58.187Z,35.30
2017-06-10T19:09:26.452Z,35.30
2017-06-10T19:11:54.716Z,35.40
2017-06-10T19:14:23.286Z,34.80
2017-06-10T19:16:51.545Z,35.70
2017-06-10T19:19:19.800Z,35.90
2017-06-10T19:21:48.063Z,35.90
2017-06-10T19:24:16.321Z,35.70
2017-06-10T19:26:44.556Z,35.90
2017-06-10T19:29:12.836Z,35.90
2017-06-10T19:31:41.076Z,36.20
2017-06-10T19:34:09.723Z,36.20
2017-06-10T19:36:37.956Z,36.20
2017-06-10T19:39:06.208Z,36.30
2017-06-10T19:41:34.647Z,36.30
2017-06-10T19:44:03.698Z,36.30
2017-06-10T19:46:31.988Z,36.50
2017-06-10T19:49:00.272Z,36.50
2017-06-10T19:51:28.520Z,36.60
2017-06-10T19:53:57.168Z,36.50
2017-06-10T19:56:25.431Z,36.50
2017-06-10T19:58:53.672Z,36.50
2017-06-10T20:01:21.919Z,36.00
2017-06-10T20:03:50.556Z,36.80
2017-06-10T20:06:18.797Z,36.60
2017-06-10T20:08:47.052Z,36.80
2017-06-10T20:11:15.516Z,36.80
2017-06-10T20:13:43.758Z,36.90
2017-06-10T20:16:12.009Z,36.00
2017-06-10T20:18:40.442Z,37.60
2017-06-10T20:21:09.039Z,37.10
2017-06-10T20:23:37.525Z,37.50
2017-06-10T20:26:05.785Z,37.90
2017-06-10T20:28:34.024Z,37.40
2017-06-10T20:31:02.297Z,38.20
2017-06-10T20:33:30.572Z,39.10
2017-06-10T20:35:58.822Z,38.80
2017-06-10T20:38:27.099Z,38.70
2017-06-10T20:40:55.339Z,38.20
2017-06-10T20:43:23.830Z,38.20
2017-06-10T20:45:52.084Z,38.40
2017-06-10T20:48:20.324Z,38.20
2017-06-10T20:50:48.562Z,37.60
2017-06-10T20:53:16.834Z,37.80
2017-06-10T20:55:45.079Z,37.80
2017-06-10T20:58:13.622Z,37.90
2017-06-10T21:00:41.902Z,37.90
2017-06-10T21:03:10.131Z,38.10
2017-06-10T21:05:38.373Z,37.60
2017-06-10T21:08:06.646Z,37.50
2017-06-10T21:10:34.964Z,38.70
2017-06-10T21:13:03.454Z,38.70
2017-06-10T21:15:31.825Z,39.10
2017-06-10T21:18:00.060Z,39.10
2017-06-10T21:20:28.314Z,39.00
2017-06-10T21:22:57.163Z,38.50
2017-06-10T21:25:25.438Z,38.50
2017-06-10T21:27:53.769Z,38.20
2017-06-10T21:30:22.274Z,38.10
2017-06-10T21:32:50.509Z,38.10
2017-06-10T21:35:19.388Z,37.90
2017-06-10T21:37:47.651Z,37.90
2017-06-10T21:40:16.666Z,37.80
2017-06-10T21:42:44.898Z,37.60
2017-06-10T21:45:13.604Z,37.80
2017-06-10T21:47:41.840Z,37.60
2017-06-10T21:50:10.183Z,37.80
2017-06-10T21:52:39.253Z,37.60
2017-06-10T21:55:07.492Z,37.60
2017-06-10T21:57:35.757Z,37.90
2017-06-10T22:00:04.113Z,38.10
2017-06-10T22:02:32.350Z,38.20
2017-06-10T22:05:00.587Z,38.20
2017-06-10T22:07:28.834Z,38.50
2017-06-10T22:09:57.460Z,38.20
2017-06-10T22:12:25.734Z,38.20
2017-06-10T22:14:53.967Z,39.00
2017-06-10T22:17:22.212Z,40.30
2017-06-10T22:19:50.584Z,40.20
2017-06-10T22:22:18.816Z,40.20
2017-06-10T22:24:47.049Z,39.90
2017-06-10T22:27:15.732Z,38.80
2017-06-10T22:29:43.973Z,38.80
2017-06-10T22:32:12.205Z,40.20
2017-06-10T22:34:40.508Z,40.60
2017-06-10T22:37:08.822Z,40.70
2017-06-10T22:39:37.056Z,41.20
2017-06-10T22:42:05.583Z,40.20
2017-06-10T22:44:33.818Z,40.60
2017-06-10T22:47:02.176Z,40.60
2017-06-10T22:49:30.452Z,41.50
2017-06-10T22:51:58.689Z,42.80
2017-06-10T22:54:26.926Z,44.10
2017-06-10T22:56:55.926Z,44.40
2017-06-10T22:59:24.166Z,44.70
2017-06-10T23:01:52.418Z,45.00
2017-06-10T23:04:20.679Z,44.70
2017-06-10T23:06:49.174Z,45.00
2017-06-10T23:09:17.399Z,45.00
2017-06-10T23:11:46.230Z,45.20
2017-06-10T23:14:14.468Z,45.50
2017-06-10T23:16:42.700Z,45.30
2017-06-10T23:19:10.978Z,45.50
2017-06-10T23:21:39.212Z,45.50
2017-06-10T23:24:07.447Z,45.50
2017-06-10T23:26:35.725Z,45.80
2017-06-10T23:29:03.974Z,45.90
2017-06-10T23:31:32.200Z,45.30
2017-06-10T23:34:00.484Z,45.50
2017-06-10T23:36:28.723Z,45.60
2017-06-10T23:38:56.961Z,46.10
2017-06-10T23:41:25.329Z,46.70
2017-06-10T23:43:53.553Z,46.80
2017-06-10T23:46:21.792Z,47.30
2017-06-10T23:48:50.075Z,47.30
2017-06-10T23:51:18.723Z,47.70
2017-06-10T23:53:46.960Z,47.70
2017-06-10T23:56:15.237Z,48.30
2017-06-10T23:58:43.481Z,47.70
